createdAt,value
2019-03-23T00:02:11.107Z,6.60
2019-03-23T00:05:16.994Z,6.77
2019-03-23T00:08:22.897Z,6.50
2019-03-23T00:11:29.138Z,6.70
2019-03-23T00:14:35.022Z,6.40
2019-03-23T00:17:40.976Z,6.43
2019-03-23T00:20:46.902Z,6.77
2019-03-23T00:23:52.798Z,6.70
2019-03-23T00:26:58.728Z,7.10
2019-03-23T00:30:05.242Z,6.50
2019-03-23T00:33:11.255Z,6.57
2019-03-23T00:36:17.142Z,6.20
2019-03-23T00:39:23.037Z,6.47
2019-03-23T00:42:30.504Z,6.10
2019-03-23T00:45:36.380Z,6.33
2019-03-23T00:48:42.299Z,6.30
2019-03-23T00:51:48.272Z,6.07
2019-03-23T00:54:54.202Z,6.77
2019-03-23T00:58:00.141Z,6.60
2019-03-23T01:01:06.117Z,6.40
2019-03-23T01:04:12.059Z,6.20
2019-03-23T01:07:19.089Z,5.93
2019-03-23T01:10:25.127Z,6.57
2019-03-23T01:13:31.056Z,6.40
2019-03-23T01:16:36.991Z,8.03
2019-03-23T01:19:42.836Z,6.60
2019-03-23T01:22:48.766Z,6.30
2019-03-23T01:25:54.652Z,6.30
2019-03-23T01:29:00.607Z,6.17
2019-03-23T01:32:06.491Z,6.80
2019-03-23T01:35:13.859Z,6.07
2019-03-23T01:38:19.723Z,7.13
2019-03-23T01:41:25.579Z,6.40
2019-03-23T01:44:33.501Z,6.63
2019-03-23T01:47:39.417Z,8.07
2019-03-23T01:50:45.351Z,7.60
2019-03-23T01:53:51.253Z,6.90
2019-03-23T01:56:57.281Z,7.70
2019-03-23T02:00:03.658Z,7.37
2019-03-23T02:03:09.742Z,7.90
2019-03-23T02:06:15.694Z,9.10
2019-03-23T02:09:21.586Z,8.20
2019-03-23T02:12:27.480Z,8.47
2019-03-23T02:15:33.456Z,9.80
2019-03-23T02:18:39.371Z,10.60
2019-03-23T02:21:45.221Z,12.33
2019-03-23T02:24:51.182Z,13.63
2019-03-23T02:27:57.201Z,15.80
2019-03-23T02:31:03.280Z,18.23
2019-03-23T02:34:09.216Z,17.97
2019-03-23T02:37:27.263Z,21.20
2019-03-23T02:40:22.826Z,23.50
2019-03-23T02:43:30.734Z,23.40
2019-03-23T02:46:36.602Z,25.40
2019-03-23T02:49:42.617Z,23.53
2019-03-23T02:52:48.465Z,27.63
2019-03-23T02:55:54.382Z,29.93
2019-03-23T02:59:00.296Z,33.07
2019-03-23T03:02:06.296Z,34.03
2019-03-23T03:05:13.364Z,36.00
2019-03-23T03:08:19.284Z,35.20
2019-03-23T03:11:25.241Z,37.10
2019-03-23T03:14:31.291Z,38.93
2019-03-23T03:17:39.285Z,40.27
2019-03-23T03:20:45.278Z,40.30
2019-03-23T03:23:53.246Z,43.10
2019-03-23T03:26:59.247Z,44.00
2019-03-23T03:30:06.006Z,44.60
2019-03-23T03:33:12.118Z,43.90
2019-03-23T03:36:18.134Z,45.33
2019-03-23T03:39:24.127Z,43.40
2019-03-23T03:42:30.035Z,43.07
2019-03-23T03:45:37.561Z,43.57
2019-03-23T03:48:43.632Z,45.00
2019-03-23T03:51:49.688Z,45.03
2019-03-23T03:54:55.693Z,49.10
2019-03-23T03:58:01.662Z,47.87
2019-03-23T04:01:07.549Z,47.10
2019-03-23T04:04:13.438Z,48.40
2019-03-23T04:07:19.283Z,46.97
2019-03-23T04:10:25.286Z,43.90
2019-03-23T04:13:31.282Z,45.13
2019-03-23T04:16:37.157Z,48.30
2019-03-23T04:19:43.088Z,46.47
2019-03-23T04:22:49.028Z,44.97
2019-03-23T04:25:55.047Z,46.93
2019-03-23T04:29:01.047Z,44.10
2019-03-23T04:32:07.249Z,42.93
2019-03-23T04:35:13.252Z,44.57
2019-03-23T04:38:23.067Z,43.50
2019-03-23T04:41:27.815Z,41.90
2019-03-23T04:44:33.735Z,40.50
2019-03-23T04:47:39.707Z,43.23
2019-03-23T04:50:46.625Z,39.90
2019-03-23T04:53:52.545Z,41.90
2019-03-23T04:56:58.390Z,41.30
2019-03-23T05:00:04.602Z,39.37
2019-03-23T05:03:10.543Z,37.00
2019-03-23T05:06:16.501Z,38.37
2019-03-23T05:09:22.531Z,38.70
2019-03-23T05:12:28.466Z,39.70
2019-03-23T05:15:35.347Z,40.70
2019-03-23T05:18:41.248Z,41.40
2019-03-23T05:21:47.263Z,38.80
2019-03-23T05:24:53.118Z,39.93
2019-03-23T05:28:00.046Z,40.60
2019-03-23T05:31:07.110Z,38.10
2019-03-23T05:34:13.265Z,38.20
2019-03-23T05:37:19.182Z,40.37
2019-03-23T05:40:25.376Z,38.40
2019-03-23T05:43:31.672Z,38.43
2019-03-23T05:46:37.545Z,38.67
2019-03-23T05:49:43.445Z,40.00
2019-03-23T05:52:49.315Z,38.87
2019-03-23T05:55:55.242Z,39.80
2019-03-23T05:59:01.154Z,38.20
2019-03-23T06:02:07.086Z,40.47
2019-03-23T06:05:13.009Z,37.97
2019-03-23T06:08:18.906Z,39.90
2019-03-23T06:11:24.810Z,40.40
2019-03-23T06:14:30.700Z,40.50
2019-03-23T06:17:36.606Z,38.20
2019-03-23T06:20:42.642Z,37.10
2019-03-23T06:23:48.723Z,38.17
2019-03-23T06:26:57.229Z,39.30
2019-03-23T06:30:03.129Z,36.60
2019-03-23T06:33:09.414Z,38.30
2019-03-23T06:36:15.445Z,39.97
2019-03-23T06:39:21.304Z,39.03
2019-03-23T06:42:28.266Z,41.47
2019-03-23T06:45:34.261Z,41.37
2019-03-23T06:48:41.494Z,37.83
2019-03-23T06:51:47.364Z,41.77
2019-03-23T06:54:54.491Z,43.03
2019-03-23T06:58:00.461Z,42.60
2019-03-23T07:01:06.401Z,42.27
2019-03-23T07:04:12.322Z,41.13
2019-03-23T07:07:18.405Z,43.27
2019-03-23T07:10:24.529Z,41.23
2019-03-23T07:13:30.464Z,39.43
2019-03-23T07:16:36.426Z,41.93
2019-03-23T07:19:42.343Z,41.70
2019-03-23T07:22:48.251Z,40.13
2019-03-23T07:25:54.226Z,41.47
2019-03-23T07:29:00.526Z,40.83
2019-03-23T07:32:06.991Z,40.47
2019-03-23T07:35:13.168Z,43.13
2019-03-23T07:38:19.110Z,41.10
2019-03-23T07:41:25.029Z,42.40
2019-03-23T07:44:30.916Z,41.77
2019-03-23T07:47:36.867Z,41.23
2019-03-23T07:50:43.255Z,39.87
2019-03-23T07:53:49.146Z,40.00
2019-03-23T07:56:55.159Z,42.03
2019-03-23T08:00:01.199Z,42.83
2019-03-23T08:03:07.040Z,40.17
2019-03-23T08:06:13.039Z,37.93
2019-03-23T08:09:20.663Z,35.27
2019-03-23T08:12:26.568Z,32.80
2019-03-23T08:15:35.715Z,34.77
2019-03-23T08:18:41.714Z,33.70
2019-03-23T08:21:48.042Z,33.80
2019-03-23T08:24:55.130Z,32.23
2019-03-23T08:28:01.160Z,34.90
2019-03-23T08:31:07.082Z,33.93
2019-03-23T08:34:13.051Z,33.80
2019-03-23T08:37:19.062Z,34.57
2019-03-23T08:40:25.146Z,34.90
2019-03-23T08:43:31.010Z,36.20
2019-03-23T08:46:37.088Z,35.37
2019-03-23T08:49:44.459Z,37.00
2019-03-23T08:52:50.433Z,36.90
2019-03-23T08:55:56.461Z,36.90
2019-03-23T08:59:03.541Z,36.83
2019-03-23T09:02:09.396Z,36.20
2019-03-23T09:05:15.362Z,36.30
2019-03-23T09:08:21.344Z,37.40
2019-03-23T09:11:27.231Z,39.17
2019-03-23T09:14:33.215Z,36.70
2019-03-23T09:17:39.411Z,36.97
2019-03-23T09:20:45.334Z,36.03
2019-03-23T09:23:53.884Z,38.00
2019-03-23T09:26:59.829Z,39.03
2019-03-23T09:30:06.435Z,37.57
2019-03-23T09:33:13.286Z,38.60
2019-03-23T09:36:22.797Z,38.93
2019-03-23T09:39:27.288Z,37.73
2019-03-23T09:42:33.185Z,34.63
2019-03-23T09:45:39.114Z,39.40
2019-03-23T09:48:45.169Z,37.10
2019-03-23T09:51:52.866Z,35.47
2019-03-23T09:54:58.785Z,35.60
2019-03-23T09:58:04.719Z,38.60
2019-03-23T10:01:10.704Z,36.00
2019-03-23T10:04:16.705Z,36.90
2019-03-23T10:07:22.739Z,35.47
2019-03-23T10:10:28.614Z,36.60
2019-03-23T10:13:34.555Z,36.50
2019-03-23T10:16:40.497Z,36.43
2019-03-23T10:19:46.522Z,35.50
2019-03-23T10:22:52.435Z,35.27
2019-03-23T10:25:58.466Z,34.43
2019-03-23T10:29:04.406Z,34.37
2019-03-23T10:32:12.844Z,34.70
2019-03-23T10:35:18.865Z,38.00
2019-03-23T10:38:24.914Z,37.07
2019-03-23T10:41:30.807Z,37.13
2019-03-23T10:44:36.715Z,33.00
2019-03-23T10:47:42.834Z,35.53
2019-03-23T10:50:48.877Z,34.57
2019-03-23T10:53:54.749Z,36.30
2019-03-23T10:57:00.713Z,35.10
2019-03-23T11:00:07.467Z,35.57
2019-03-23T11:03:14.945Z,35.07
2019-03-23T11:06:21.035Z,33.50
2019-03-23T11:09:26.995Z,34.00
2019-03-23T11:12:32.893Z,34.13
2019-03-23T11:15:38.880Z,33.87
2019-03-23T11:18:46.008Z,33.60
2019-03-23T11:21:51.974Z,34.73
2019-03-23T11:24:57.936Z,33.97
2019-03-23T11:28:04.220Z,33.20
2019-03-23T11:31:10.106Z,33.90
2019-03-23T11:34:18.089Z,32.63
2019-03-23T11:37:23.801Z,34.50
2019-03-23T11:40:31.848Z,31.80
2019-03-23T11:43:37.599Z,29.20
2019-03-23T11:46:44.035Z,33.40
2019-03-23T11:49:49.940Z,30.83
2019-03-23T11:52:55.797Z,32.43
2019-03-23T11:56:01.813Z,31.97
2019-03-23T11:59:07.744Z,30.70
2019-03-23T12:02:13.741Z,30.33
2019-03-23T12:05:19.695Z,32.30
2019-03-23T12:08:25.628Z,32.20
2019-03-23T12:11:32.570Z,33.53
2019-03-23T12:14:38.548Z,30.83
2019-03-23T12:17:47.628Z,31.57
2019-03-23T12:20:53.556Z,30.00
2019-03-23T12:23:59.518Z,29.67
2019-03-23T12:27:05.458Z,33.50
2019-03-23T12:30:13.969Z,32.60
2019-03-23T12:33:21.519Z,31.10
2019-03-23T12:36:27.605Z,30.30
2019-03-23T12:39:33.633Z,32.40
2019-03-23T12:42:39.564Z,33.57
2019-03-23T12:45:45.727Z,30.80
2019-03-23T12:48:51.769Z,31.10
2019-03-23T12:51:57.728Z,31.60
2019-03-23T12:55:03.718Z,32.20
2019-03-23T12:58:09.759Z,33.30
2019-03-23T13:01:16.019Z,33.10
2019-03-23T13:04:22.147Z,31.40
2019-03-23T13:07:28.098Z,34.63
2019-03-23T13:10:34.029Z,33.07
2019-03-23T13:13:39.846Z,32.93
2019-03-23T13:16:45.820Z,32.50
2019-03-23T13:19:51.938Z,32.83
2019-03-23T13:22:57.902Z,32.60
2019-03-23T13:26:03.858Z,30.17
2019-03-23T13:29:09.812Z,31.67
2019-03-23T13:32:16.732Z,31.00
2019-03-23T13:35:22.712Z,29.50
2019-03-23T13:38:28.710Z,30.67
2019-03-23T13:41:41.196Z,31.60
2019-03-23T13:44:42.351Z,31.80
2019-03-23T13:47:48.385Z,34.43
2019-03-23T13:50:54.337Z,32.73
2019-03-23T13:54:00.376Z,34.73
2019-03-23T13:57:06.316Z,30.97
2019-03-23T14:00:12.313Z,31.63
2019-03-23T14:03:18.202Z,29.37
2019-03-23T14:06:25.733Z,30.10
2019-03-23T14:09:34.227Z,29.70
2019-03-23T14:12:42.202Z,28.70
2019-03-23T14:15:48.499Z,30.60
2019-03-23T14:18:54.413Z,31.00
2019-03-23T14:22:00.473Z,31.30
2019-03-23T14:25:06.974Z,30.53
2019-03-23T14:28:12.908Z,33.00
2019-03-23T14:31:23.527Z,32.30
2019-03-23T14:34:29.383Z,31.13
2019-03-23T14:37:35.362Z,27.20
2019-03-23T14:40:41.475Z,27.33
2019-03-23T14:43:47.457Z,27.57
2019-03-23T14:46:53.391Z,27.60
2019-03-23T14:49:59.457Z,28.37
2019-03-23T14:53:08.533Z,27.93
2019-03-23T14:56:14.479Z,30.53
2019-03-23T14:59:22.478Z,28.87
2019-03-23T15:02:28.499Z,29.90
2019-03-23T15:05:37.411Z,29.20
2019-03-23T15:08:43.396Z,28.30
2019-03-23T15:11:49.321Z,29.10
2019-03-23T15:14:55.205Z,28.50
2019-03-23T15:18:01.071Z,29.47
2019-03-23T15:21:07.118Z,30.20
2019-03-23T15:24:13.004Z,30.50
2019-03-23T15:27:18.941Z,29.53
2019-03-23T15:30:24.833Z,32.50
2019-03-23T15:33:30.790Z,30.87
2019-03-23T15:36:36.717Z,30.53
2019-03-23T15:39:42.601Z,29.73
2019-03-23T15:42:48.572Z,33.53
2019-03-23T15:45:54.993Z,31.60
2019-03-23T15:49:00.940Z,32.27
2019-03-23T15:52:08.063Z,35.90
2019-03-23T15:55:14.035Z,36.57
2019-03-23T15:58:19.920Z,32.60
2019-03-23T16:01:25.935Z,32.17
2019-03-23T16:04:31.881Z,33.63
2019-03-23T16:07:38.007Z,32.70
2019-03-23T16:10:44.887Z,34.40
2019-03-23T16:13:50.896Z,37.30
2019-03-23T16:16:56.853Z,35.43
2019-03-23T16:20:02.858Z,35.80
2019-03-23T16:23:08.953Z,39.03
2019-03-23T16:26:14.853Z,37.90
2019-03-23T16:29:20.713Z,39.67
2019-03-23T16:32:26.635Z,36.67
2019-03-23T16:35:32.900Z,38.87
2019-03-23T16:38:51.657Z,39.50
2019-03-23T16:41:57.518Z,38.27
2019-03-23T16:45:03.474Z,35.50
2019-03-23T16:48:09.483Z,36.43
2019-03-23T16:51:15.441Z,35.30
2019-03-23T16:54:21.393Z,35.63
2019-03-23T16:57:27.384Z,36.93
2019-03-23T17:00:37.753Z,36.30
2019-03-23T17:03:44.962Z,36.47
2019-03-23T17:06:51.237Z,37.37
2019-03-23T17:09:57.174Z,37.93
2019-03-23T17:13:03.086Z,34.47
2019-03-23T17:16:10.096Z,35.50
2019-03-23T17:19:16.448Z,34.60
2019-03-23T17:22:22.698Z,34.23
2019-03-23T17:25:29.816Z,29.07
2019-03-23T17:28:35.771Z,28.20
2019-03-23T17:31:41.673Z,29.27
2019-03-23T17:34:47.637Z,27.53
2019-03-23T17:37:55.218Z,31.27
2019-03-23T17:41:01.159Z,30.80
2019-03-23T17:44:08.177Z,29.40
2019-03-23T17:47:14.043Z,30.30
2019-03-23T17:50:19.959Z,33.30
2019-03-23T17:53:25.978Z,34.03
2019-03-23T17:56:32.053Z,32.30
2019-03-23T17:59:40.667Z,33.40
2019-03-23T18:02:46.698Z,33.60
2019-03-23T18:05:52.606Z,33.37
2019-03-23T18:08:58.520Z,24.80
2019-03-23T18:12:07.940Z,24.20
2019-03-23T18:15:14.227Z,23.73
2019-03-23T18:18:20.207Z,22.30
2019-03-23T18:21:26.201Z,20.60
2019-03-23T18:24:32.172Z,19.93
2019-03-23T18:27:38.173Z,19.40
2019-03-23T18:30:45.106Z,18.93
2019-03-23T18:33:51.048Z,17.83
2019-03-23T18:36:57.308Z,19.83
2019-03-23T18:40:03.273Z,18.50
2019-03-23T18:43:09.267Z,18.27
2019-03-23T18:46:16.499Z,19.90
2019-03-23T18:49:22.429Z,18.10
2019-03-23T18:52:28.384Z,19.10
2019-03-23T18:55:34.368Z,17.43
2019-03-23T18:58:40.279Z,17.83
2019-03-23T19:01:46.157Z,18.57
2019-03-23T19:04:52.283Z,17.93
2019-03-23T19:07:59.678Z,17.37
2019-03-23T19:11:05.758Z,17.00
2019-03-23T19:14:12.370Z,18.20
2019-03-23T19:17:18.427Z,16.63
2019-03-23T19:20:24.383Z,17.47
2019-03-23T19:23:30.374Z,19.07
2019-03-23T19:26:39.568Z,18.10
2019-03-23T19:29:45.523Z,18.40
2019-03-23T19:32:51.432Z,17.23
2019-03-23T19:35:57.339Z,18.70
2019-03-23T19:39:05.105Z,18.33
2019-03-23T19:42:11.029Z,17.97
2019-03-23T19:45:16.998Z,16.67
2019-03-23T19:48:22.927Z,16.00
2019-03-23T19:51:28.967Z,16.10
2019-03-23T19:54:34.943Z,18.27
2019-03-23T19:57:41.018Z,17.07
2019-03-23T20:00:46.935Z,17.50
2019-03-23T20:03:52.968Z,16.60
2019-03-23T20:06:58.917Z,15.60
2019-03-23T20:10:05.328Z,15.00
2019-03-23T20:13:11.470Z,15.20
2019-03-23T20:16:17.366Z,15.30
2019-03-23T20:19:23.294Z,15.60
2019-03-23T20:22:29.245Z,14.90
2019-03-23T20:25:35.169Z,10.40
2019-03-23T20:28:41.212Z,12.10
2019-03-23T20:31:47.072Z,10.27
2019-03-23T20:34:53.062Z,9.10
2019-03-23T20:37:59.003Z,9.10
2019-03-23T20:41:05.068Z,9.17
2019-03-23T20:44:11.028Z,9.57
2019-03-23T20:47:16.956Z,7.93
2019-03-23T20:50:22.909Z,6.30
2019-03-23T20:53:29.021Z,7.20
2019-03-23T20:56:34.952Z,7.50
2019-03-23T20:59:40.980Z,7.00
2019-03-23T21:02:46.963Z,6.27
2019-03-23T21:05:52.881Z,5.83
2019-03-23T21:08:58.777Z,5.50
2019-03-23T21:12:04.711Z,6.37
2019-03-23T21:15:12.138Z,6.20
2019-03-23T21:18:18.007Z,6.50
2019-03-23T21:21:25.962Z,6.10
2019-03-23T21:24:31.897Z,6.73
2019-03-23T21:27:37.783Z,5.63
2019-03-23T21:30:43.738Z,6.60
2019-03-23T21:33:50.137Z,6.33
2019-03-23T21:36:56.072Z,6.50
2019-03-23T21:40:01.993Z,5.53
2019-03-23T21:43:08.903Z,6.63
2019-03-23T21:46:14.874Z,5.97
2019-03-23T21:49:20.831Z,6.53
2019-03-23T21:52:26.782Z,5.40
2019-03-23T21:55:32.747Z,6.20
2019-03-23T21:58:38.641Z,6.93
2019-03-23T22:01:44.716Z,5.50
2019-03-23T22:04:51.957Z,5.33
2019-03-23T22:07:57.864Z,5.77
2019-03-23T22:11:03.747Z,5.43
2019-03-23T22:14:09.647Z,6.67
2019-03-23T22:17:15.507Z,5.93
2019-03-23T22:20:21.462Z,6.47
2019-03-23T22:23:27.331Z,6.30
2019-03-23T22:26:33.277Z,5.77
2019-03-23T22:29:39.426Z,6.43
2019-03-23T22:32:45.559Z,6.47
2019-03-23T22:35:54.695Z,8.50
2019-03-23T22:39:00.746Z,7.27
2019-03-23T22:42:07.445Z,7.30
2019-03-23T22:45:13.600Z,6.93
2019-03-23T22:48:19.498Z,6.90
2019-03-23T22:51:25.377Z,6.20
2019-03-23T22:54:31.365Z,5.80
2019-03-23T22:57:37.336Z,6.90
2019-03-23T23:00:48.141Z,5.97
2019-03-23T23:03:54.246Z,6.40
2019-03-23T23:07:00.126Z,6.00
2019-03-23T23:10:06.762Z,6.10
2019-03-23T23:13:12.681Z,6.40
2019-03-23T23:16:19.066Z,6.20
2019-03-23T23:19:25.828Z,6.00
2019-03-23T23:22:31.762Z,5.30
2019-03-23T23:25:37.754Z,5.40
2019-03-23T23:28:43.677Z,5.77
2019-03-23T23:31:49.547Z,6.53
2019-03-23T23:34:56.459Z,6.77
2019-03-23T23:38:02.460Z,6.67
2019-03-23T23:41:08.457Z,6.23
2019-03-23T23:44:14.406Z,7.53
2019-03-23T23:47:20.260Z,6.73
2019-03-23T23:50:26.208Z,5.90
2019-03-23T23:53:32.149Z,6.93
2019-03-23T23:56:38.160Z,6.23
2019-03-23T23:59:44.087Z,7.50
